Time;durP1;ratioP1;P1;durP2;ratioP2;P2;SDS_P1;SDS_P2;PMS_P1;PMS_P2;Temp;Humidity;BMP_temperature;BMP_pressure;BME280_temperature;BME280_humidity;BME280_pressure;Samples;Min_cycle;Max_cycle;Signal;HPM_P1;HPM_P2
2022/11/20 00:00:46;;;;;;;35.45;17.55;;;12.00;55.40;;;;;;5054269;28;20390;-89
2022/11/20 00:03:13;;;;;;;36.53;17.50;;;12.10;55.30;;;;;;5054976;28;20025;-92
2022/11/20 00:05:38;;;;;;;30.42;16.33;;;12.20;55.10;;;;;;5054881;28;20110;-87
2022/11/20 00:08:04;;;;;;;31.80;16.20;;;12.10;54.60;;;;;;5053819;28;20112;-91
2022/11/20 00:10:31;;;;;;;33.45;16.25;;;12.20;55.00;;;;;;5054808;28;20078;-87
2022/11/20 00:12:58;;;;;;;33.85;16.90;;;12.30;55.00;;;;;;5054593;28;20053;-88
2022/11/20 00:15:24;;;;;;;29.85;16.65;;;12.30;54.90;;;;;;5054424;28;20029;-87
2022/11/20 00:17:50;;;;;;;30.08;15.63;;;12.30;54.80;;;;;;5054002;28;20070;-87
2022/11/20 00:20:15;;;;;;;34.40;17.42;;;12.30;55.00;;;;;;5052879;28;20067;-88
2022/11/20 00:22:41;;;;;;;31.10;15.18;;;12.20;54.40;;;;;;5054679;28;20384;-88
2022/11/20 00:25:07;;;;;;;34.38;16.48;;;11.90;54.70;;;;;;5054625;28;20064;-88
2022/11/20 00:27:33;;;;;;;32.75;15.95;;;11.50;55.60;;;;;;5053887;28;20029;-87
2022/11/20 00:29:58;;;;;;;34.78;16.50;;;11.10;56.10;;;;;;5053283;28;20029;-88
2022/11/20 00:32:24;;;;;;;46.08;17.73;;;11.00;56.60;;;;;;5054617;28;20116;-88
2022/11/20 00:34:50;;;;;;;32.88;17.52;;;11.20;56.60;;;;;;5053984;28;20479;-91
2022/11/20 00:37:15;;;;;;;38.15;18.08;;;11.40;56.70;;;;;;5054501;28;20025;-87
2022/11/20 00:39:41;;;;;;;36.17;17.50;;;11.80;56.30;;;;;;5052901;28;20063;-87
2022/11/20 00:42:07;;;;;;;37.03;18.83;;;11.90;55.90;;;;;;5054119;28;20468;-87
2022/11/20 00:44:32;;;;;;;39.03;19.20;;;12.00;55.60;;;;;;5054055;28;20086;-87
2022/11/20 00:46:58;;;;;;;41.17;19.52;;;12.00;56.00;;;;;;5053978;28;20048;-86
2022/11/20 00:49:24;;;;;;;40.72;20.00;;;11.40;56.30;;;;;;5053325;28;20053;-86
2022/11/20 00:51:49;;;;;;;46.15;20.15;;;10.80;58.20;;;;;;5052609;28;20031;-86
2022/11/20 00:54:15;;;;;;;36.92;18.17;;;11.00;58.20;;;;;;5053821;28;20083;-86
2022/11/20 00:56:41;;;;;;;37.45;19.58;;;11.00;57.90;;;;;;5054602;28;20032;-87
2022/11/20 00:59:08;;;;;;;39.80;18.85;;;10.80;58.50;;;;;;5054279;28;20411;-88
2022/11/20 01:01:39;;;;;;;47.67;21.17;;;10.70;58.70;;;;;;5054447;28;20063;-87
2022/11/20 01:04:04;;;;;;;;;;;10.60;59.10;;;;;;5041856;28;20086;-88
2022/11/20 01:06:33;;;;;;;43.13;20.42;;;10.40;59.20;;;;;;5053221;28;19913;-87
2022/11/20 01:09:01;;;;;;;42.83;19.48;;;10.10;59.70;;;;;;5053933;28;20029;-87
2022/11/20 01:11:29;;;;;;;40.30;19.77;;;10.10;60.10;;;;;;5053041;28;20166;-87
2022/11/20 01:13:56;;;;;;;46.08;20.45;;;10.00;59.70;;;;;;5053462;28;20028;-87
2022/11/20 01:16:30;;;;;;;41.60;20.25;;;10.20;60.00;;;;;;5053953;28;20071;-88
2022/11/20 01:18:58;;;;;;;44.38;18.85;;;10.50;59.40;;;;;;5053586;28;20037;-87
2022/11/20 01:21:27;;;;;;;41.80;20.83;;;10.80;58.30;;;;;;5053236;28;20047;-86
2022/11/20 01:23:53;;;;;;;42.15;20.17;;;10.70;58.30;;;;;;5039565;28;20393;-86
2022/11/20 01:26:27;;;;;;;39.50;20.02;;;10.70;58.50;;;;;;5049874;28;20021;-84
2022/11/20 01:28:53;;;;;;;39.70;19.80;;;10.70;58.40;;;;;;5053194;28;20025;-87
2022/11/20 01:31:26;;;;;;;40.30;20.13;;;10.50;58.60;;;;;;5053232;28;20017;-85
2022/11/20 01:33:54;;;;;;;41.85;20.25;;;10.10;58.70;;;;;;5052082;28;20484;-87
2022/11/20 01:36:22;;;;;;;37.85;19.05;;;9.80;59.80;;;;;;5053748;28;20090;-84
2022/11/20 01:38:48;;;;;;;40.67;19.08;;;9.70;59.50;;;;;;5053070;28;20037;-87
2022/11/20 01:43:20;;;;;;;39.55;19.15;;;9.60;60.30;;;;;;5052846;28;20440;-86
2022/11/20 01:44:01;;;;;;;39.53;19.02;;;9.60;60.50;;;;;;5053639;28;20033;-85
2022/11/20 01:46:27;;;;;;;38.55;19.58;;;9.80;60.00;;;;;;5052795;28;20040;-86
2022/11/20 01:49:15;;;;;;;38.20;19.33;;;9.90;59.40;;;;;;5052648;28;20025;-86
2022/11/20 01:51:47;;;;;;;39.92;19.88;;;10.00;59.10;;;;;;5050273;28;20037;-86
2022/11/20 01:54:18;;;;;;;40.15;20.65;;;10.20;58.80;;;;;;5047084;28;20083;-87
2022/11/20 01:56:48;;;;;;;40.75;19.75;;;10.30;59.20;;;;;;5049518;28;20858;-86
2022/11/20 01:59:17;;;;;;;39.17;18.95;;;10.60;58.40;;;;;;5051800;28;20037;-86
2022/11/20 02:01:43;;;;;;;28.75;15.00;;;10.80;57.40;;;;;;5052232;28;20025;-88
2022/11/20 02:04:10;;;;;;;35.72;18.38;;;10.80;57.40;;;;;;5052683;28;20032;-87
2022/11/20 02:06:42;;;;;;;42.97;19.80;;;10.90;56.60;;;;;;5051942;28;20025;-87
2022/11/20 02:09:08;;;;;;;36.75;18.58;;;10.40;57.60;;;;;;5037238;28;20423;-87
2022/11/20 02:11:33;;;;;;;37.55;18.30;;;10.60;58.10;;;;;;5053447;28;20033;-88
2022/11/20 02:13:59;;;;;;;37.42;18.30;;;10.60;57.70;;;;;;5053401;28;20112;-88
2022/11/20 02:16:28;;;;;;;36.33;18.90;;;10.80;57.10;;;;;;5053159;28;20029;-88
2022/11/20 02:18:58;;;;;;;35.95;18.60;;;10.00;57.90;;;;;;5052010;28;20031;-87
2022/11/20 02:21:33;;;;;;;42.63;19.63;;;9.40;60.20;;;;;;5052935;28;20036;-88
2022/11/20 02:24:09;;;;;;;39.72;19.23;;;9.90;59.40;;;;;;5053196;28;20435;-87
2022/11/20 02:26:50;;;;;;;38.63;18.10;;;10.40;58.40;;;;;;5052927;28;20032;-89
2022/11/20 02:29:26;;;;;;;36.50;17.73;;;10.90;57.30;;;;;;5053109;28;20379;-88
2022/11/20 02:31:54;;;;;;;40.55;18.98;;;11.00;57.00;;;;;;5052947;28;20401;-87
2022/11/20 02:34:20;;;;;;;36.63;19.05;;;11.30;56.70;;;;;;5052799;28;20074;-88
2022/11/20 02:36:47;;;;;;;34.67;19.00;;;11.60;55.70;;;;;;5052141;28;20025;-88
2022/11/20 02:39:16;;;;;;;36.65;18.27;;;11.80;55.80;;;;;;5052153;28;20041;-89
2022/11/20 02:41:42;;;;;;;40.72;18.50;;;11.80;55.30;;;;;;5052287;28;20025;-88
2022/11/20 02:44:08;;;;;;;38.03;18.42;;;11.20;56.20;;;;;;5051354;28;20025;-87
2022/11/20 02:46:35;;;;;;;38.88;19.23;;;11.00;56.80;;;;;;5051960;28;20048;-87
2022/11/20 02:49:05;;;;;;;38.15;18.88;;;11.10;56.60;;;;;;5051946;28;20088;-87
2022/11/20 02:51:31;;;;;;;;;;;11.20;56.10;;;;;;5052574;28;20047;-89
2022/11/20 02:53:56;;;;;;;34.35;18.13;;;11.30;56.20;;;;;;5051647;28;20039;-88
2022/11/20 02:56:22;;;;;;;34.92;18.30;;;11.40;55.60;;;;;;5046492;28;20017;-89
2022/11/20 02:58:48;;;;;;;37.83;17.98;;;11.10;56.20;;;;;;5049094;28;20029;-87
2022/11/20 03:01:14;;;;;;;37.30;18.40;;;11.10;56.60;;;;;;5039721;28;20444;-91
2022/11/20 03:03:40;;;;;;;37.70;17.98;;;11.00;56.00;;;;;;5051239;28;20047;-87
2022/11/20 03:06:06;;;;;;;36.00;18.02;;;10.30;57.90;;;;;;5053038;28;20025;-88
2022/11/20 03:08:32;;;;;;;41.40;18.75;;;10.40;58.20;;;;;;5051852;28;20060;-88
2022/11/20 03:11:03;;;;;;;35.20;17.83;;;10.60;57.90;;;;;;5053362;28;20125;-89
2022/11/20 03:13:28;;;;;;;38.47;18.65;;;10.80;56.60;;;;;;5055879;28;20395;-89
2022/11/20 03:15:54;;;;;;;39.63;18.63;;;10.50;57.40;;;;;;5055812;28;20033;-88
2022/11/20 03:18:20;;;;;;;40.05;19.45;;;10.10;58.30;;;;;;5055912;28;20036;-88
2022/11/20 03:20:45;;;;;;;36.15;18.80;;;10.40;58.80;;;;;;5055774;28;20468;-88
2022/11/20 03:23:11;;;;;;;35.45;17.80;;;10.70;57.90;;;;;;5055983;28;20527;-87
2022/11/20 03:25:37;;;;;;;36.28;18.52;;;10.90;56.90;;;;;;5055624;28;20033;-90
2022/11/20 03:28:03;;;;;;;37.97;18.02;;;11.10;56.30;;;;;;5049777;28;20025;-88
2022/11/20 03:30:28;;;;;;;38.10;19.48;;;10.80;57.10;;;;;;5036058;28;20112;-87
2022/11/20 03:32:54;;;;;;;37.90;18.95;;;10.80;57.20;;;;;;5043566;28;20032;-89
2022/11/20 03:35:20;;;;;;;38.97;19.20;;;10.80;57.10;;;;;;5055983;28;20388;-88
2022/11/20 03:37:46;;;;;;;36.58;18.13;;;11.10;56.20;;;;;;5055854;28;20032;-91
2022/11/20 03:40:12;;;;;;;39.45;19.83;;;11.10;56.10;;;;;;5050838;28;20029;-90
2022/11/20 03:42:47;;;;;;;36.42;18.90;;;11.10;56.60;;;;;;5055867;28;20024;-89
2022/11/20 03:45:14;;;;;;;38.72;19.58;;;11.00;56.30;;;;;;5041331;28;20075;-91
2022/11/20 03:47:40;;;;;;;38.38;19.85;;;10.80;56.70;;;;;;5054610;28;20025;-89
2022/11/20 03:50:06;;;;;;;40.53;20.05;;;10.90;56.90;;;;;;5053584;28;20055;-88
2022/11/20 03:52:32;;;;;;;40.22;19.75;;;11.10;56.30;;;;;;5054933;28;20033;-89
2022/11/20 03:54:58;;;;;;;33.17;18.00;;;11.10;56.60;;;;;;5055313;28;20123;-89
2022/11/20 03:57:23;;;;;;;38.95;19.67;;;11.10;56.00;;;;;;5055111;28;20082;-89
2022/11/20 03:59:49;;;;;;;38.05;19.60;;;10.90;56.00;;;;;;5055219;28;20037;-89
2022/11/20 04:02:15;;;;;;;34.03;18.13;;;10.80;56.40;;;;;;5053812;28;20040;-87
2022/11/20 04:04:40;;;;;;;37.50;18.40;;;10.80;56.80;;;;;;5055345;28;20159;-87
2022/11/20 04:07:06;;;;;;;37.15;19.55;;;10.80;56.40;;;;;;5055733;28;20021;-87
2022/11/20 04:09:32;;;;;;;35.20;18.77;;;10.80;56.40;;;;;;5053916;28;20435;-87
2022/11/20 04:11:57;;;;;;;39.90;19.65;;;11.00;56.00;;;;;;5055215;28;20021;-87
2022/11/20 04:14:23;;;;;;;38.67;19.13;;;11.30;56.00;;;;;;5055533;28;20033;-90
2022/11/20 04:16:49;;;;;;;36.33;18.55;;;11.40;55.30;;;;;;5055400;28;20021;-88
2022/11/20 04:19:16;;;;;;;37.22;19.88;;;11.30;54.70;;;;;;5055156;28;20068;-88
2022/11/20 04:21:42;;;;;;;36.00;18.25;;;10.90;55.40;;;;;;5054835;28;20476;-88
2022/11/20 04:24:08;;;;;;;35.55;18.92;;;10.60;56.50;;;;;;5055357;28;20025;-87
2022/11/20 04:26:34;;;;;;;36.97;19.77;;;10.60;56.60;;;;;;5055151;28;20025;-88
2022/11/20 04:29:03;;;;;;;39.58;20.30;;;10.70;56.40;;;;;;5040494;28;20037;-91
2022/11/20 04:31:31;;;;;;;35.85;18.88;;;10.50;57.00;;;;;;5037665;28;20070;-89
2022/11/20 04:34:01;;;;;;;37.17;19.75;;;10.70;56.70;;;;;;5045581;28;20033;-90
2022/11/20 04:36:28;;;;;;;40.08;20.58;;;10.80;56.50;;;;;;5045899;28;20116;-90
2022/11/20 04:38:56;;;;;;;38.20;20.20;;;11.00;56.20;;;;;;5035346;28;20025;-91
2022/11/20 04:41:27;;;;;;;33.72;18.90;;;11.20;56.30;;;;;;5047080;28;20025;-91
2022/11/20 04:43:58;;;;;;;34.20;18.48;;;11.30;55.60;;;;;;5042716;28;20484;-90
2022/11/20 04:46:25;;;;;;;32.10;17.40;;;11.30;55.60;;;;;;5044719;28;20392;-88
2022/11/20 04:48:51;;;;;;;33.75;17.45;;;11.10;54.80;;;;;;5035923;28;20404;-90
2022/11/20 04:51:17;;;;;;;32.80;18.23;;;10.80;55.50;;;;;;5045794;28;20480;-88
2022/11/20 04:53:43;;;;;;;33.28;17.30;;;11.00;55.10;;;;;;5046453;28;20021;-90
2022/11/20 04:56:11;;;;;;;31.35;16.95;;;11.20;54.90;;;;;;5038166;28;20032;-88
2022/11/20 04:58:40;;;;;;;32.83;16.65;;;11.20;54.00;;;;;;5034482;28;20029;-89
2022/11/20 05:01:21;;;;;;;33.92;16.95;;;11.30;54.30;;;;;;5041018;28;20032;-92
2022/11/20 05:03:47;;;;;;;32.13;16.98;;;11.40;53.90;;;;;;5054223;28;20029;-89
2022/11/20 05:06:15;;;;;;;29.75;15.85;;;10.60;54.00;;;;;;5054455;28;20025;-89
2022/11/20 05:08:41;;;;;;;32.08;17.95;;;9.80;56.60;;;;;;5053735;28;20025;-90
2022/11/20 05:11:09;;;;;;;38.53;20.23;;;10.00;57.00;;;;;;5054371;28;20028;-90
2022/11/20 05:13:35;;;;;;;33.42;17.60;;;10.40;56.30;;;;;;5054659;28;20025;-89
2022/11/20 05:16:07;;;;;;;33.80;18.48;;;10.80;55.50;;;;;;5054729;28;20021;-88
2022/11/20 05:18:37;;;;;;;35.55;18.38;;;10.70;55.60;;;;;;5042731;28;20163;-91
2022/11/20 05:21:03;;;;;;;37.10;19.23;;;10.90;55.40;;;;;;5053461;28;20039;-89
2022/11/20 05:23:31;;;;;;;34.60;18.25;;;11.20;55.00;;;;;;5053848;28;20025;-90
2022/11/20 05:25:58;;;;;;;33.38;17.73;;;11.40;54.60;;;;;;5053282;28;20551;-90
2022/11/20 05:28:25;;;;;;;49.80;24.67;;;11.70;54.10;;;;;;5054074;28;20064;-90
2022/11/20 05:30:51;;;;;;;46.20;23.02;;;11.70;54.00;;;;;;5053268;28;20167;-89
2022/11/20 05:33:17;;;;;;;32.53;16.63;;;11.60;54.20;;;;;;5052630;28;20120;-89
2022/11/20 05:35:44;;;;;;;82.03;37.65;;;10.80;54.30;;;;;;5067088;28;20396;-89
2022/11/20 05:38:10;;;;;;;75.03;37.42;;;10.50;55.00;;;;;;5033656;28;20025;-87
2022/11/20 05:40:35;;;;;;;54.00;28.40;;;10.30;56.10;;;;;;5048690;28;20037;-87
2022/11/20 05:43:01;;;;;;;90.47;44.63;;;10.50;55.90;;;;;;5053730;28;20025;-88
2022/11/20 05:45:27;;;;;;;39.13;20.80;;;10.60;55.80;;;;;;5053089;28;20031;-87
2022/11/20 05:47:53;;;;;;;57.63;28.02;;;11.00;55.50;;;;;;5053546;28;20070;-88
2022/11/20 05:50:19;;;;;;;72.18;34.92;;;11.20;55.10;;;;;;5053951;28;20048;-87
2022/11/20 05:52:44;;;;;;;57.03;29.08;;;11.30;54.30;;;;;;5052990;28;20035;-89
2022/11/20 05:55:10;;;;;;;40.63;20.98;;;11.50;54.40;;;;;;5053523;28;20529;-87
2022/11/20 05:57:36;;;;;;;38.75;19.33;;;11.60;54.20;;;;;;5053615;28;20021;-88
2022/11/20 06:00:03;;;;;;;28.70;15.63;;;11.60;54.30;;;;;;5048275;28;20391;-90
2022/11/20 06:02:28;;;;;;;32.13;16.88;;;11.70;54.10;;;;;;5043697;28;20022;-87
2022/11/20 06:04:54;;;;;;;30.42;15.50;;;11.70;53.50;;;;;;5039594;28;20029;-88
2022/11/20 06:07:20;;;;;;;33.33;16.45;;;11.70;54.00;;;;;;5033617;28;20025;-92
2022/11/20 06:09:45;;;;;;;31.00;15.77;;;11.80;54.00;;;;;;5034683;28;20419;-88
2022/11/20 06:12:11;;;;;;;34.80;19.35;;;11.80;53.60;;;;;;5039197;28;20032;-88
2022/11/20 06:14:37;;;;;;;34.25;18.73;;;11.50;54.30;;;;;;5049076;28;20120;-87
2022/11/20 06:17:02;;;;;;;31.75;17.20;;;11.60;54.40;;;;;;5051261;28;20021;-89
2022/11/20 06:19:28;;;;;;;40.63;21.98;;;11.70;54.50;;;;;;5044173;28;20052;-91
2022/11/20 06:21:54;;;;;;;38.78;20.48;;;11.80;53.90;;;;;;5034162;28;20116;-89
2022/11/20 06:24:20;;;;;;;33.35;17.55;;;11.80;53.90;;;;;;5041093;28;20484;-88
2022/11/20 06:26:45;;;;;;;31.83;16.95;;;11.90;53.80;;;;;;5038124;28;20116;-88
2022/11/20 06:29:11;;;;;;;33.13;20.17;;;12.00;53.60;;;;;;5044223;28;20029;-90
2022/11/20 06:31:37;;;;;;;31.73;17.83;;;12.10;53.30;;;;;;5042091;28;20148;-90
2022/11/20 06:34:06;;;;;;;32.13;16.98;;;12.20;53.20;;;;;;5041324;28;20036;-89
2022/11/20 06:36:33;;;;;;;27.95;15.65;;;11.90;54.00;;;;;;5043941;28;20061;-90
2022/11/20 06:38:59;;;;;;;29.52;16.58;;;11.70;54.20;;;;;;5038090;28;20041;-89
2022/11/20 06:41:25;;;;;;;31.23;16.40;;;11.50;54.60;;;;;;5038135;28;20447;-90
2022/11/20 06:43:51;;;;;;;27.83;15.55;;;11.50;54.70;;;;;;5039331;28;20545;-89
2022/11/20 06:46:18;;;;;;;29.88;16.02;;;11.50;55.00;;;;;;5045601;28;20033;-90
2022/11/20 06:48:45;;;;;;;28.42;15.57;;;11.40;54.80;;;;;;5049749;28;20380;-89
2022/11/20 06:51:11;;;;;;;31.13;16.05;;;11.30;55.10;;;;;;5043029;28;20033;-86
2022/11/20 06:53:37;;;;;;;36.45;19.88;;;11.30;55.60;;;;;;5048213;28;20032;-89
2022/11/20 06:56:03;;;;;;;32.22;18.00;;;11.50;55.30;;;;;;5050260;28;20032;-90
2022/11/20 06:58:32;;;;;;;36.38;18.77;;;11.80;54.90;;;;;;5044059;28;20029;-87
2022/11/20 07:00:59;;;;;;;33.28;17.63;;;11.90;54.60;;;;;;5040547;28;20037;-86
2022/11/20 07:03:24;;;;;;;27.50;14.90;;;11.80;54.80;;;;;;4353313;28;10021425;-90
2022/11/20 07:05:50;;;;;;;36.38;18.10;;;11.90;54.50;;;;;;5048811;28;20040;-89
2022/11/20 07:08:16;;;;;;;30.02;17.13;;;11.90;54.20;;;;;;5051711;28;20040;-90
2022/11/20 07:10:42;;;;;;;31.27;16.65;;;12.00;54.10;;;;;;5050295;28;20024;-88
2022/11/20 07:13:07;;;;;;;30.42;16.92;;;11.90;54.00;;;;;;5035676;28;20071;-89
2022/11/20 07:15:33;;;;;;;31.67;17.13;;;12.10;54.20;;;;;;5051197;28;20036;-88
2022/11/20 07:17:59;;;;;;;35.30;18.40;;;12.20;53.60;;;;;;5050048;28;20464;-88
2022/11/20 07:20:26;;;;;;;30.88;18.15;;;12.40;53.60;;;;;;5050022;28;20634;-87
2022/11/20 07:22:55;;;;;;;34.50;18.85;;;12.40;53.40;;;;;;5049550;28;20032;-89
2022/11/20 07:25:22;;;;;;;32.42;17.40;;;12.40;53.40;;;;;;5051717;28;20709;-88
2022/11/20 07:27:48;;;;;;;35.60;20.35;;;12.40;53.00;;;;;;5037979;28;20052;-88
2022/11/20 07:30:15;;;;;;;31.60;16.85;;;12.30;53.40;;;;;;5050453;28;20392;-87
2022/11/20 07:32:40;;;;;;;29.38;16.38;;;12.10;53.30;;;;;;5051267;28;20487;-91
2022/11/20 07:35:07;;;;;;;30.88;16.33;;;12.30;53.50;;;;;;5050300;28;20033;-89
2022/11/20 07:37:35;;;;;;;28.85;15.40;;;12.30;53.50;;;;;;5047885;28;20025;-89
2022/11/20 07:40:01;;;;;;;27.00;14.20;;;12.30;53.20;;;;;;5049893;28;20041;-89
2022/11/20 07:42:27;;;;;;;29.33;15.27;;;12.10;52.20;;;;;;5043591;28;20479;-88
2022/11/20 07:44:52;;;;;;;27.23;14.45;;;12.00;53.10;;;;;;5051434;28;20408;-87
2022/11/20 07:47:18;;;;;;;28.67;16.25;;;12.10;53.30;;;;;;5040919;28;20049;-88
2022/11/20 07:49:44;;;;;;;27.88;16.27;;;12.00;54.10;;;;;;5043987;28;20064;-87
2022/11/20 07:52:09;;;;;;;28.42;14.98;;;12.00;53.80;;;;;;5050434;28;20161;-86
2022/11/20 07:54:35;;;;;;;28.85;14.55;;;12.40;53.30;;;;;;5051951;28;20467;-89
2022/11/20 07:57:01;;;;;;;27.73;14.80;;;12.50;52.40;;;;;;5053649;28;20420;-90
2022/11/20 07:59:26;;;;;;;27.73;14.77;;;12.70;52.00;;;;;;5055732;28;20040;-92
2022/11/20 08:02:00;;;;;;;25.48;13.48;;;12.50;51.90;;;;;;5041753;28;20029;-87
2022/11/20 08:04:26;;;;;;;29.70;15.43;;;12.50;51.80;;;;;;5035516;28;20116;-91
2022/11/20 08:06:54;;;;;;;29.83;15.32;;;12.70;51.90;;;;;;5047441;28;20111;-88
2022/11/20 08:09:20;;;;;;;25.02;14.05;;;12.90;51.90;;;;;;5055044;28;20029;-90
2022/11/20 08:14:30;;;;;;;30.55;16.98;;;13.40;51.10;;;;;;5056492;28;20616;-90
2022/11/20 08:16:55;;;;;;;27.73;15.05;;;13.60;51.00;;;;;;5053780;28;20035;-91
2022/11/20 08:19:21;;;;;;;25.33;14.52;;;13.60;50.80;;;;;;5051415;28;20037;-90
2022/11/20 08:21:47;;;;;;;28.40;15.25;;;13.50;50.00;;;;;;5054706;28;20114;-89
2022/11/20 08:24:12;;;;;;;27.58;14.15;;;13.20;50.80;;;;;;5054967;28;20024;-88
2022/11/20 08:26:39;;;;;;;25.90;14.05;;;13.20;51.10;;;;;;5054889;28;20036;-88
2022/11/20 08:29:05;;;;;;;26.95;14.85;;;13.30;51.50;;;;;;5057904;28;20026;-91
2022/11/20 08:31:31;;;;;;;26.25;15.20;;;13.30;51.80;;;;;;5054969;28;20036;-89
2022/11/20 08:33:58;;;;;;;25.63;13.90;;;13.50;50.90;;;;;;5056755;28;20510;-89
2022/11/20 08:36:24;;;;;;;25.85;14.60;;;12.90;51.30;;;;;;5050784;28;20033;-89
2022/11/20 08:38:52;;;;;;;23.50;13.50;;;13.00;52.10;;;;;;5052584;28;20079;-88
2022/11/20 08:41:25;;;;;;;23.27;13.13;;;13.20;51.50;;;;;;5054341;28;20098;-88
2022/11/20 08:43:55;;;;;;;26.25;14.63;;;13.20;50.90;;;;;;5053991;28;20483;-91
2022/11/20 08:46:22;;;;;;;24.90;13.38;;;12.90;51.90;;;;;;4700644;28;9999794;-92
2022/11/20 08:48:47;;;;;;;22.88;13.13;;;12.90;52.50;;;;;;5049150;28;20025;-85
2022/11/20 08:51:14;;;;;;;23.13;13.57;;;12.60;52.80;;;;;;5054315;28;20032;-95
2022/11/20 08:53:40;;;;;;;27.65;14.82;;;12.80;53.20;;;;;;5050451;28;20028;-94
2022/11/20 08:56:07;;;;;;;30.10;17.00;;;13.10;52.30;;;;;;5034204;28;20221;-89
2022/11/20 08:58:32;;;;;;;36.15;19.08;;;13.20;52.20;;;;;;5049274;28;20792;-88
2022/11/20 09:00:58;;;;;;;29.27;16.92;;;13.30;52.40;;;;;;5054103;28;20041;-87
2022/11/20 09:03:26;;;;;;;24.70;14.20;;;13.40;51.90;;;;;;5040947;28;20025;-89
2022/11/20 09:06:03;;;;;;;33.08;16.85;;;13.10;51.90;;;;;;5049970;28;20053;-89
2022/11/20 09:08:30;;;;;;;34.50;19.10;;;13.10;52.50;;;;;;5052128;28;20116;-91
2022/11/20 09:10:57;;;;;;;31.08;17.92;;;13.20;52.40;;;;;;5049313;28;20026;-89
2022/11/20 09:13:24;;;;;;;35.75;20.58;;;13.20;52.60;;;;;;5033369;28;20029;-92
2022/11/20 09:15:58;;;;;;;34.60;19.35;;;13.40;52.80;;;;;;5040073;28;20039;-89
2022/11/20 09:18:24;;;;;;;36.70;20.60;;;13.60;52.60;;;;;;5035286;28;20030;-88
2022/11/20 09:20:50;;;;;;;35.88;19.98;;;13.60;52.20;;;;;;5053325;28;20045;-87
2022/11/20 09:23:16;;;;;;;30.67;18.52;;;13.60;52.30;;;;;;5050671;28;20018;-88
2022/11/20 09:25:42;;;;;;;26.55;15.38;;;13.70;52.20;;;;;;5053250;28;20039;-89
2022/11/20 09:28:08;;;;;;;25.38;13.82;;;13.80;52.00;;;;;;5050509;28;20028;-88
2022/11/20 09:30:34;;;;;;;26.15;14.45;;;13.60;52.30;;;;;;5048748;28;20078;-91
2022/11/20 09:32:59;;;;;;;24.50;14.05;;;13.80;52.30;;;;;;5053364;28;20021;-90
2022/11/20 09:35:26;;;;;;;31.25;17.30;;;13.80;52.00;;;;;;5053166;28;20041;-87
2022/11/20 09:37:52;;;;;;;26.00;15.82;;;13.90;52.50;;;;;;5052915;28;20075;-87
2022/11/20 09:40:18;;;;;;;28.33;16.15;;;13.90;51.20;;;;;;5051979;28;20029;-91
2022/11/20 09:42:43;;;;;;;26.58;15.57;;;13.60;52.80;;;;;;5045107;28;20025;-90
2022/11/20 09:45:24;;;;;;;34.17;20.63;;;13.30;53.00;;;;;;5048309;28;20048;-85
2022/11/20 09:47:54;;;;;;;29.17;16.13;;;13.20;53.70;;;;;;5039912;28;20507;-88
2022/11/20 09:50:47;;;;;;;30.92;16.38;;;13.30;54.80;;;;;;5040791;28;20659;-87
2022/11/20 09:53:28;;;;;;;28.63;16.50;;;13.50;53.70;;;;;;5033879;28;20041;-87
2022/11/20 09:55:54;;;;;;;;;;;13.60;53.50;;;;;;5026343;28;20037;-92
2022/11/20 09:58:35;;;;;;;26.15;15.52;;;14.00;53.10;;;;;;5020071;28;19952;-90
2022/11/20 10:01:13;;;;;;;78.88;70.47;;;14.50;51.50;;;;;;5032829;28;20044;-91
2022/11/20 10:04:00;;;;;;;25.17;15.82;;;14.20;52.00;;;;;;5034264;28;20044;-90
2022/11/20 10:06:54;;;;;;;30.38;17.70;;;14.20;52.00;;;;;;5028673;28;20111;-84
2022/11/20 10:09:43;;;;;;;32.45;17.80;;;14.60;51.60;;;;;;5048322;28;20041;-86
2022/11/20 10:12:26;;;;;;;26.27;16.10;;;15.40;52.00;;;;;;5034615;28;20400;-83
2022/11/20 10:15:10;;;;;;;30.33;16.60;;;15.90;49.90;;;;;;5015833;28;20025;-84
2022/11/20 10:18:14;;;;;;;27.92;15.57;;;16.20;50.00;;;;;;5018950;28;20549;-86
2022/11/20 10:20:57;;;;;;;28.55;16.70;;;16.20;49.60;;;;;;5045799;28;20048;-86
2022/11/20 10:23:28;;;;;;;26.08;15.73;;;16.20;49.80;;;;;;5035266;28;20060;-85
2022/11/20 10:26:09;;;;;;;25.90;14.90;;;16.80;49.40;;;;;;5021265;28;20025;-89
2022/11/20 10:28:53;;;;;;;;;;;17.30;48.00;;;;;;5030733;28;20025;-90
2022/11/20 10:31:39;;;;;;;31.00;23.10;;;17.40;47.60;;;;;;5031091;28;20375;-89
2022/11/20 10:34:20;;;;;;;27.73;16.30;;;16.90;48.90;;;;;;5040136;28;20056;-90
2022/11/20 10:36:56;;;;;;;23.35;13.88;;;16.80;48.70;;;;;;5048074;28;20021;-87
2022/11/20 10:39:28;;;;;;;24.20;14.50;;;17.30;48.20;;;;;;5050142;28;20033;-86
2022/11/20 10:41:55;;;;;;;26.67;15.80;;;17.70;47.50;;;;;;5049799;28;20029;-86
2022/11/20 10:47:15;;;;;;;31.53;18.07;;;17.40;47.30;;;;;;5051161;28;20051;-85
2022/11/20 10:49:43;;;;;;;26.90;15.80;;;17.00;48.10;;;;;;5046873;28;20282;-87
2022/11/20 10:52:30;;;;;;;26.48;15.13;;;17.20;48.90;;;;;;5037151;28;20038;-86
2022/11/20 10:55:18;;;;;;;32.20;18.02;;;17.20;48.00;;;;;;5032595;28;20087;-87
2022/11/20 10:58:19;;;;;;;25.77;16.02;;;16.40;49.50;;;;;;5052552;28;20173;-87
2022/11/20 11:00:44;;;;;;;26.30;16.10;;;16.50;49.70;;;;;;5049078;28;20037;-87
2022/11/20 11:03:25;;;;;;;28.77;17.13;;;16.30;50.10;;;;;;5053731;28;20052;-87
2022/11/20 11:05:54;;;;;;;;;;;15.70;50.30;;;;;;5052828;28;20025;-85
2022/11/20 11:08:21;;;;;;;32.35;17.63;;;15.30;51.20;;;;;;5053289;28;19905;-85
2022/11/20 11:10:57;;;;;;;49.88;38.85;;;14.70;52.10;;;;;;5052310;28;20480;-82
2022/11/20 11:13:28;;;;;;;152.93;136.70;;;14.50;52.20;;;;;;5052580;28;20092;-86
2022/11/20 11:15:54;;;;;;;;;;;14.00;53.80;;;;;;5052759;28;20021;-85
2022/11/20 11:18:38;;;;;;;39.17;27.63;;;13.80;54.20;;;;;;5052324;28;19904;-87
2022/11/20 11:21:05;;;;;;;34.30;21.15;;;14.10;54.10;;;;;;5052312;28;20029;-86
2022/11/20 11:23:34;;;;;;;58.10;39.42;;;13.60;54.40;;;;;;5043701;28;20025;-85
2022/11/20 11:26:01;;;;;;;39.72;24.55;;;13.80;55.10;;;;;;5051955;28;20029;-87
2022/11/20 11:28:27;;;;;;;30.23;19.02;;;13.70;54.50;;;;;;5052514;28;20483;-88
2022/11/20 11:30:54;;;;;;;32.38;19.23;;;14.10;54.40;;;;;;5050817;28;20082;-83
2022/11/20 11:33:25;;;;;;;33.83;19.20;;;14.60;53.70;;;;;;5054474;28;20033;-86
2022/11/20 11:36:01;;;;;;;31.30;19.13;;;14.40;53.80;;;;;;5052195;28;20033;-86
2022/11/20 11:38:40;;;;;;;31.15;18.67;;;14.50;54.20;;;;;;5052382;28;20021;-91
2022/11/20 11:41:09;;;;;;;31.48;17.65;;;14.40;53.40;;;;;;5054841;28;20047;-87
2022/11/20 11:46:34;;;;;;;32.78;18.42;;;14.20;53.50;;;;;;5040835;28;20396;-91
2022/11/20 11:49:17;;;;;;;30.70;17.95;;;14.10;54.10;;;;;;5053812;28;20045;-89
2022/11/20 11:51:46;;;;;;;41.42;22.95;;;14.10;54.30;;;;;;5049741;28;20088;-90
2022/11/20 11:54:22;;;;;;;37.58;24.77;;;14.00;54.50;;;;;;5036150;28;20022;-94
2022/11/20 11:56:49;;;;;;;36.17;22.90;;;14.00;55.30;;;;;;5035569;28;20030;-88
2022/11/20 11:59:28;;;;;;;48.50;32.17;;;14.40;54.90;;;;;;5035503;28;20515;-91
2022/11/20 12:01:59;;;;;;;35.95;21.83;;;14.60;53.70;;;;;;5035654;28;20463;-87
2022/11/20 12:04:46;;;;;;;34.88;21.55;;;14.20;54.70;;;;;;5054745;28;20028;-86
2022/11/20 12:07:22;;;;;;;43.50;31.00;;;14.40;54.60;;;;;;5055311;28;20017;-87
2022/11/20 12:09:52;;;;;;;49.80;30.75;;;14.60;54.00;;;;;;5056018;28;20025;-90
2022/11/20 12:12:29;;;;;;;48.35;34.67;;;14.50;54.60;;;;;;5055093;28;20025;-88
2022/11/20 12:14:57;;;;;;;44.97;33.78;;;14.80;54.60;;;;;;5055690;28;20078;-92
2022/11/20 12:17:24;;;;;;;57.83;44.30;;;14.70;54.10;;;;;;5055219;28;20357;-86
2022/11/20 12:19:50;;;;;;;43.47;28.13;;;14.30;54.10;;;;;;5055321;28;20436;-87
2022/11/20 12:22:28;;;;;;;39.40;26.10;;;14.00;55.60;;;;;;5055004;28;20027;-93
2022/11/20 12:24:57;;;;;;;140.73;104.03;;;14.40;55.20;;;;;;5055189;28;20036;-88
2022/11/20 12:27:52;;;;;;;72.85;57.95;;;14.40;54.00;;;;;;5054524;28;20025;-87
2022/11/20 12:30:20;;;;;;;35.28;21.80;;;14.00;55.10;;;;;;5054894;28;20115;-85
2022/11/20 12:32:51;;;;;;;47.25;33.08;;;14.00;55.40;;;;;;5054488;28;20513;-88
2022/11/20 12:36:05;;;;;;;39.30;25.08;;;14.20;55.10;;;;;;5055260;28;20044;-88
2022/11/20 12:38:45;;;;;;;88.50;65.50;;;14.20;54.50;;;;;;5053944;28;20033;-91
2022/11/20 12:47:36;;;;;;;37.28;21.50;;;13.20;56.30;;;;;;5055293;28;20116;-88
2022/11/20 12:50:23;;;;;;;40.42;26.85;;;13.50;56.10;;;;;;5054639;28;20041;-86
2022/11/20 12:52:57;;;;;;;60.88;43.88;;;13.70;55.50;;;;;;4005181;28;10000712;-89